createdAt,value
2022-08-28T00:04:34.357Z,24.7
2022-08-28T00:09:26.992Z,24.71
2022-08-28T00:14:13.690Z,24.71
2022-08-28T00:19:06.915Z,24.7
2022-08-28T00:24:00.801Z,24.7
2022-08-28T00:28:53.618Z,24.69
2022-08-28T00:33:48.144Z,24.66
2022-08-28T00:38:39.104Z,24.69
2022-08-28T00:43:31.757Z,24.73
2022-08-28T00:48:24.507Z,24.7
2022-08-28T00:53:11.342Z,24.71
2022-08-28T00:58:04.944Z,24.7
2022-08-28T01:02:58.809Z,24.7
2022-08-28T01:07:51.467Z,24.69
2022-08-28T01:12:44.107Z,24.67
2022-08-28T01:17:36.825Z,24.67
2022-08-28T01:22:29.399Z,24.65
2022-08-28T01:27:22.191Z,24.66
2022-08-28T01:32:14.781Z,24.62
2022-08-28T01:37:07.514Z,24.68
2022-08-28T01:42:00.219Z,24.67
2022-08-28T01:46:52.747Z,24.64
2022-08-28T01:51:45.555Z,24.67
2022-08-28T01:56:38.347Z,24.67
2022-08-28T02:01:31.143Z,24.67
2022-08-28T02:06:23.860Z,24.67
2022-08-28T02:11:16.667Z,24.65
2022-08-28T02:16:09.831Z,24.65
2022-08-28T02:21:02.221Z,24.65
2022-08-28T02:25:54.905Z,24.68
2022-08-28T02:30:47.708Z,24.68
2022-08-28T02:35:40.375Z,24.64
2022-08-28T02:40:33.075Z,24.67
2022-08-28T02:45:25.699Z,24.65
2022-08-28T02:50:18.478Z,24.63
2022-08-28T02:55:11.052Z,24.59
2022-08-28T03:00:03.878Z,24.58
2022-08-28T03:04:56.680Z,24.59
2022-08-28T03:09:49.300Z,24.58
2022-08-28T03:14:42.192Z,24.52
2022-08-28T03:19:34.766Z,24.54
2022-08-28T03:24:27.654Z,24.55
2022-08-28T03:29:20.389Z,24.56
2022-08-28T03:34:13.137Z,24.51
2022-08-28T03:39:05.616Z,24.52
2022-08-28T03:43:58.345Z,24.49
2022-08-28T03:48:51.001Z,24.47
2022-08-28T03:53:43.785Z,24.5
2022-08-28T03:58:36.716Z,24.53
2022-08-28T04:03:29.359Z,24.48
2022-08-28T04:08:21.896Z,24.5
2022-08-28T04:13:14.318Z,24.44
2022-08-28T04:18:06.836Z,24.41
2022-08-28T04:23:00.356Z,24.47
2022-08-28T04:27:52.213Z,24.41
2022-08-28T04:32:44.797Z,24.41
2022-08-28T04:37:37.530Z,24.4
2022-08-28T04:42:30.278Z,24.4
2022-08-28T04:47:22.966Z,24.4
2022-08-28T04:52:15.242Z,24.36
2022-08-28T04:57:07.943Z,24.41
2022-08-28T05:02:00.477Z,24.38
2022-08-28T05:06:52.686Z,23.88
2022-08-28T05:11:45.112Z,23.89
2022-08-28T05:16:37.665Z,23.73
2022-08-28T05:21:30.370Z,23.72
2022-08-28T05:26:22.950Z,23.69
2022-08-28T05:31:15.637Z,23.61
2022-08-28T05:36:08.165Z,23.35
2022-08-28T05:41:00.509Z,23.37
2022-08-28T05:45:53.494Z,23.44
2022-08-28T05:50:47.232Z,23.33
2022-08-28T05:55:38.461Z,23.24
2022-08-28T06:00:30.732Z,22.25
2022-08-28T06:05:24.382Z,23.14
2022-08-28T06:10:17.289Z,23.25
2022-08-28T06:15:04.003Z,23.09
2022-08-28T06:19:57.427Z,23.3
2022-08-28T06:24:51.105Z,23.21
2022-08-28T06:29:43.579Z,23.08
2022-08-28T06:34:36.757Z,23.35
2022-08-28T06:39:29.838Z,23.25
2022-08-28T06:44:21.864Z,23.13
2022-08-28T06:49:14.091Z,22.84
2022-08-28T06:54:06.856Z,23.01
2022-08-28T06:58:59.694Z,22.87
2022-08-28T07:03:52.495Z,22.91
2022-08-28T07:08:45.233Z,22.9
2022-08-28T07:13:37.957Z,22.83
2022-08-28T07:18:30.505Z,22.78
2022-08-28T07:23:20.082Z,22.94
2022-08-28T07:28:14.018Z,23.02
2022-08-28T07:33:06.324Z,22.64
2022-08-28T07:37:58.858Z,22.77
2022-08-28T07:42:51.809Z,22.93
2022-08-28T07:47:45.026Z,22.74
2022-08-28T07:52:37.426Z,22.73
2022-08-28T07:57:29.809Z,22.69
2022-08-28T08:02:21.964Z,22.54
2022-08-28T08:07:15.022Z,22.61
2022-08-28T08:12:07.566Z,22.74
2022-08-28T08:17:00.286Z,22.75
2022-08-28T08:21:53.090Z,22.64
2022-08-28T08:26:45.224Z,22.66
2022-08-28T08:31:38.228Z,22.87
2022-08-28T08:36:30.681Z,22.85
2022-08-28T08:41:23.506Z,22.82
2022-08-28T08:46:16.171Z,22.86
2022-08-28T08:51:08.792Z,22.74
2022-08-28T08:56:01.149Z,22.59
2022-08-28T09:00:53.601Z,22.42
2022-08-28T09:05:46.065Z,22.55
2022-08-28T09:10:38.303Z,22.62
2022-08-28T09:15:31.215Z,22.79
2022-08-28T09:20:24.188Z,22.46
2022-08-28T09:25:16.804Z,22.75
2022-08-28T09:30:09.212Z,22.54
2022-08-28T09:35:01.980Z,22.75
2022-08-28T09:39:54.682Z,22.86
2022-08-28T09:44:46.968Z,22.7
2022-08-28T09:49:39.812Z,22.94
2022-08-28T09:54:32.299Z,23.08
2022-08-28T09:59:24.731Z,23.34
2022-08-28T10:04:17.383Z,23.45
2022-08-28T10:09:09.812Z,23.55
2022-08-28T10:14:02.256Z,23.52
2022-08-28T10:18:54.917Z,23.55
2022-08-28T10:23:47.391Z,23.63
2022-08-28T10:28:40.275Z,23.63
2022-08-28T10:33:32.714Z,23.73
2022-08-28T10:38:25.253Z,23.72
2022-08-28T10:43:17.957Z,23.72
2022-08-28T10:48:10.389Z,23.84
2022-08-28T10:53:03.128Z,23.89
2022-08-28T10:57:55.654Z,23.89
2022-08-28T11:02:48.821Z,23.93
2022-08-28T11:07:41.412Z,23.91
2022-08-28T11:12:33.997Z,23.93
2022-08-28T11:17:26.527Z,23.98
2022-08-28T11:22:19.568Z,24.02
2022-08-28T11:27:12.000Z,24.04
2022-08-28T11:32:04.604Z,24.08
2022-08-28T11:36:57.382Z,24.11
2022-08-28T11:41:50.162Z,24.13
2022-08-28T11:46:42.633Z,24.11
2022-08-28T11:51:35.577Z,24.16
2022-08-28T11:56:30.544Z,24.22
2022-08-28T12:01:21.351Z,24.21
2022-08-28T12:06:13.743Z,24.26
2022-08-28T12:11:06.514Z,24.33
2022-08-28T12:15:59.254Z,24.37
2022-08-28T12:20:51.915Z,24.41
2022-08-28T12:25:44.427Z,24.46
2022-08-28T12:30:37.055Z,24.49
2022-08-28T12:35:30.124Z,24.51
2022-08-28T12:40:22.166Z,24.58
2022-08-28T12:45:14.690Z,24.65
2022-08-28T12:50:07.607Z,24.71
2022-08-28T12:54:59.911Z,24.78
2022-08-28T12:59:52.644Z,24.82
2022-08-28T13:04:45.354Z,24.89
2022-08-28T13:09:37.476Z,24.96
2022-08-28T13:14:30.116Z,25.03
2022-08-28T13:19:22.746Z,25.06
2022-08-28T13:24:15.373Z,25.12
2022-08-28T13:29:07.995Z,25.18
2022-08-28T13:34:00.635Z,25.24
2022-08-28T13:38:53.257Z,25.25
2022-08-28T13:43:45.706Z,25.21
2022-08-28T13:48:38.473Z,25.24
2022-08-28T13:53:31.073Z,25.25
2022-08-28T13:58:23.937Z,25.28
2022-08-28T14:03:16.680Z,25.3
2022-08-28T14:08:09.179Z,25.31
2022-08-28T14:13:01.765Z,25.34
2022-08-28T14:17:48.333Z,25.35
2022-08-28T14:22:45.156Z,25.37
2022-08-28T14:27:37.792Z,25.39
2022-08-28T14:32:30.307Z,25.4
2022-08-28T14:37:22.828Z,25.42
2022-08-28T14:42:15.419Z,25.42
2022-08-28T14:47:08.012Z,25.43
2022-08-28T14:52:04.844Z,25.43
2022-08-28T14:56:56.660Z,25.47
2022-08-28T15:01:49.375Z,25.47
2022-08-28T15:06:42.323Z,25.5
2022-08-28T15:11:34.900Z,25.51
2022-08-28T15:16:29.995Z,25.54
2022-08-28T15:21:19.823Z,25.53
2022-08-28T15:26:15.361Z,25.56
2022-08-28T15:31:05.285Z,25.58
2022-08-28T15:35:58.121Z,25.58
2022-08-28T15:40:51.157Z,25.63
2022-08-28T15:45:43.942Z,25.66
2022-08-28T15:50:36.607Z,25.69
2022-08-28T15:55:29.269Z,25.69
2022-08-28T16:00:21.455Z,25.66
2022-08-28T16:05:14.004Z,25.64
2022-08-28T16:10:06.622Z,25.62
2022-08-28T16:14:59.227Z,25.62
2022-08-28T16:19:51.867Z,25.65
2022-08-28T16:24:44.548Z,25.62
2022-08-28T16:29:37.284Z,25.58
2022-08-28T16:34:31.553Z,25.54
2022-08-28T16:39:22.324Z,25.55
2022-08-28T16:44:15.046Z,25.55
2022-08-28T16:49:07.643Z,25.53
2022-08-28T16:54:00.214Z,25.5
2022-08-28T16:58:52.976Z,25.55
2022-08-28T17:03:45.298Z,25.58
2022-08-28T17:08:37.931Z,25.57
2022-08-28T17:13:30.523Z,25.56
2022-08-28T17:18:23.555Z,25.57
2022-08-28T17:23:16.175Z,25.61
2022-08-28T17:28:09.058Z,25.63
2022-08-28T17:33:01.706Z,25.56
2022-08-28T17:37:54.202Z,25.55
2022-08-28T17:42:46.909Z,25.54
2022-08-28T17:47:39.132Z,25.57
2022-08-28T17:52:32.013Z,25.61
2022-08-28T17:57:24.550Z,25.62
2022-08-28T18:02:16.925Z,25.58
2022-08-28T18:07:09.360Z,25.55
2022-08-28T18:12:02.034Z,25.53
2022-08-28T18:16:54.366Z,25.59
2022-08-28T18:21:46.982Z,25.59
2022-08-28T18:26:39.851Z,25.56
2022-08-28T18:31:32.808Z,25.52
2022-08-28T18:36:25.775Z,25.56
2022-08-28T18:41:15.271Z,25.58
2022-08-28T18:46:09.389Z,25.57
2022-08-28T18:51:01.816Z,25.57
2022-08-28T18:55:54.364Z,25.54
2022-08-28T19:00:47.044Z,25.53
2022-08-28T19:05:39.559Z,25.54
2022-08-28T19:10:33.712Z,25.53
2022-08-28T19:15:24.759Z,25.52
2022-08-28T19:20:17.234Z,25.5
2022-08-28T19:25:11.336Z,25.46
2022-08-28T19:30:02.497Z,25.48
2022-08-28T19:34:54.857Z,25.44
2022-08-28T19:39:56.081Z,25.43
2022-08-28T19:44:40.200Z,25.43
2022-08-28T19:49:33.033Z,25.41
2022-08-28T19:54:25.483Z,25.42
2022-08-28T19:59:17.836Z,25.38
2022-08-28T20:04:10.194Z,25.38
2022-08-28T20:09:02.967Z,25.36
2022-08-28T20:13:55.747Z,25.35
2022-08-28T20:18:48.918Z,25.41
2022-08-28T20:23:41.493Z,25.28
2022-08-28T20:28:33.944Z,25.24
2022-08-28T20:33:26.368Z,25.22
2022-08-28T20:38:18.881Z,25.16
2022-08-28T20:43:11.415Z,25.15
2022-08-28T20:48:03.822Z,25.15
2022-08-28T20:52:56.632Z,25.16
2022-08-28T20:57:49.239Z,25.16
2022-08-28T21:02:41.750Z,25.13
2022-08-28T21:07:34.322Z,25.11
2022-08-28T21:12:26.840Z,25.1
2022-08-28T21:17:22.706Z,25.02
2022-08-28T21:22:11.807Z,25.03
2022-08-28T21:27:04.576Z,25.03
2022-08-28T21:31:57.107Z,25
2022-08-28T21:36:50.369Z,24.98
2022-08-28T21:41:42.207Z,24.99
2022-08-28T21:46:34.871Z,24.95
2022-08-28T21:51:27.466Z,24.97
2022-08-28T21:56:19.702Z,24.92
2022-08-28T22:01:12.146Z,24.88
2022-08-28T22:06:04.812Z,24.84
2022-08-28T22:10:57.170Z,24.84
2022-08-28T22:15:49.722Z,24.75
2022-08-28T22:20:42.356Z,24.76
2022-08-28T22:25:40.959Z,24.74
2022-08-28T22:30:27.238Z,24.7
2022-08-28T22:35:19.787Z,24.67
2022-08-28T22:40:12.894Z,24.7
2022-08-28T22:45:04.338Z,24.68
2022-08-28T22:49:57.095Z,24.67
2022-08-28T22:54:52.323Z,24.64
2022-08-28T22:59:42.103Z,24.63
2022-08-28T23:04:34.345Z,24.56
2022-08-28T23:09:26.870Z,24.62
2022-08-28T23:14:19.175Z,24.58
2022-08-28T23:19:13.075Z,24.53
2022-08-28T23:24:04.042Z,24.53
2022-08-28T23:28:56.696Z,24.53
2022-08-28T23:33:49.664Z,24.57
2022-08-28T23:38:43.062Z,24.49
2022-08-28T23:43:34.518Z,24.5
2022-08-28T23:48:27.140Z,24.48
2022-08-28T23:53:19.584Z,24.49
2022-08-28T23:58:11.992Z,24.44
